sensor_id;sensor_type;location;lat;lon;timestamp;temperature;humidity
5461;DHT22;2753;49.196;8.286;2022-07-22T00:00:57;23.20;88.60
5461;DHT22;2753;49.196;8.286;2022-07-22T00:03:23;23.10;88.80
5461;DHT22;2753;49.196;8.286;2022-07-22T00:05:49;23.20;88.60
5461;DHT22;2753;49.196;8.286;2022-07-22T00:08:14;23.10;88.70
5461;DHT22;2753;49.196;8.286;2022-07-22T00:10:41;23.10;88.60
5461;DHT22;2753;49.196;8.286;2022-07-22T00:13:07;23.20;88.60
5461;DHT22;2753;49.196;8.286;2022-07-22T00:15:32;22.80;88.10
5461;DHT22;2753;49.196;8.286;2022-07-22T00:17:58;23.10;88.70
5461;DHT22;2753;49.196;8.286;2022-07-22T00:20:24;23.10;89.10
5461;DHT22;2753;49.196;8.286;2022-07-22T00:22:49;23.00;88.90
5461;DHT22;2753;49.196;8.286;2022-07-22T00:25:15;22.90;89.20
5461;DHT22;2753;49.196;8.286;2022-07-22T00:27:41;22.80;89.30
5461;DHT22;2753;49.196;8.286;2022-07-22T00:30:07;22.90;89.10
5461;DHT22;2753;49.196;8.286;2022-07-22T00:32:33;22.80;88.80
5461;DHT22;2753;49.196;8.286;2022-07-22T00:34:59;22.80;88.70
5461;DHT22;2753;49.196;8.286;2022-07-22T00:37:24;22.70;88.70
5461;DHT22;2753;49.196;8.286;2022-07-22T00:39:50;22.70;88.70
5461;DHT22;2753;49.196;8.286;2022-07-22T00:42:16;22.80;89.00
5461;DHT22;2753;49.196;8.286;2022-07-22T00:44:42;22.80;88.80
5461;DHT22;2753;49.196;8.286;2022-07-22T00:47:08;22.70;88.60
5461;DHT22;2753;49.196;8.286;2022-07-22T00:49:33;22.70;88.50
5461;DHT22;2753;49.196;8.286;2022-07-22T00:51:59;22.70;89.30
5461;DHT22;2753;49.196;8.286;2022-07-22T00:54:25;22.60;89.00
5461;DHT22;2753;49.196;8.286;2022-07-22T00:56:51;22.50;88.90
5461;DHT22;2753;49.196;8.286;2022-07-22T00:59:17;22.60;88.80
5461;DHT22;2753;49.196;8.286;2022-07-22T01:01:43;22.60;88.80
5461;DHT22;2753;49.196;8.286;2022-07-22T01:04:08;22.60;88.80
5461;DHT22;2753;49.196;8.286;2022-07-22T01:06:34;22.60;88.50
5461;DHT22;2753;49.196;8.286;2022-07-22T01:09:00;22.60;88.90
5461;DHT22;2753;49.196;8.286;2022-07-22T01:11:26;22.60;88.60
5461;DHT22;2753;49.196;8.286;2022-07-22T01:13:54;22.60;88.90
5461;DHT22;2753;49.196;8.286;2022-07-22T01:16:20;22.60;89.00
5461;DHT22;2753;49.196;8.286;2022-07-22T01:18:46;22.50;89.30
5461;DHT22;2753;49.196;8.286;2022-07-22T01:21:13;22.40;89.70
5461;DHT22;2753;49.196;8.286;2022-07-22T01:23:40;22.40;89.50
5461;DHT22;2753;49.196;8.286;2022-07-22T01:26:06;22.40;89.30
5461;DHT22;2753;49.196;8.286;2022-07-22T01:28:32;22.40;89.50
5461;DHT22;2753;49.196;8.286;2022-07-22T01:30:58;22.40;89.70
5461;DHT22;2753;49.196;8.286;2022-07-22T01:33:24;22.30;89.60
5461;DHT22;2753;49.196;8.286;2022-07-22T01:35:51;22.30;89.40
5461;DHT22;2753;49.196;8.286;2022-07-22T01:38:17;22.30;89.30
5461;DHT22;2753;49.196;8.286;2022-07-22T01:40:44;22.30;89.10
5461;DHT22;2753;49.196;8.286;2022-07-22T01:43:10;22.30;89.10
5461;DHT22;2753;49.196;8.286;2022-07-22T01:45:37;22.30;89.50
5461;DHT22;2753;49.196;8.286;2022-07-22T01:48:03;22.20;90.00
5461;DHT22;2753;49.196;8.286;2022-07-22T01:50:30;22.20;90.00
5461;DHT22;2753;49.196;8.286;2022-07-22T01:52:55;22.10;90.30
5461;DHT22;2753;49.196;8.286;2022-07-22T01:55:21;22.00;90.40
5461;DHT22;2753;49.196;8.286;2022-07-22T01:57:47;22.00;90.60
5461;DHT22;2753;49.196;8.286;2022-07-22T02:00:13;21.90;90.60
5461;DHT22;2753;49.196;8.286;2022-07-22T02:02:39;21.90;90.50
5461;DHT22;2753;49.196;8.286;2022-07-22T02:05:05;21.90;90.30
5461;DHT22;2753;49.196;8.286;2022-07-22T02:07:32;21.90;90.30
5461;DHT22;2753;49.196;8.286;2022-07-22T02:09:58;21.90;90.40
5461;DHT22;2753;49.196;8.286;2022-07-22T02:12:24;21.90;90.40
5461;DHT22;2753;49.196;8.286;2022-07-22T02:14:49;21.90;90.20
5461;DHT22;2753;49.196;8.286;2022-07-22T02:17:15;21.90;90.40
5461;DHT22;2753;49.196;8.286;2022-07-22T02:19:42;21.90;90.30
5461;DHT22;2753;49.196;8.286;2022-07-22T02:22:08;21.90;90.40
5461;DHT22;2753;49.196;8.286;2022-07-22T02:24:33;21.80;90.40
5461;DHT22;2753;49.196;8.286;2022-07-22T02:26:59;21.80;90.30
5461;DHT22;2753;49.196;8.286;2022-07-22T02:29:25;21.90;90.30
5461;DHT22;2753;49.196;8.286;2022-07-22T02:31:51;21.90;90.40
5461;DHT22;2753;49.196;8.286;2022-07-22T02:34:17;21.80;90.60
5461;DHT22;2753;49.196;8.286;2022-07-22T02:36:43;21.70;90.70
5461;DHT22;2753;49.196;8.286;2022-07-22T02:39:08;21.60;90.90
5461;DHT22;2753;49.196;8.286;2022-07-22T02:41:34;21.50;91.00
5461;DHT22;2753;49.196;8.286;2022-07-22T02:44:00;21.50;90.90
5461;DHT22;2753;49.196;8.286;2022-07-22T02:46:27;21.50;91.20
5461;DHT22;2753;49.196;8.286;2022-07-22T02:48:54;21.40;91.20
5461;DHT22;2753;49.196;8.286;2022-07-22T02:51:20;21.50;90.90
5461;DHT22;2753;49.196;8.286;2022-07-22T02:53:46;21.50;91.00
5461;DHT22;2753;49.196;8.286;2022-07-22T02:56:11;21.40;91.20
5461;DHT22;2753;49.196;8.286;2022-07-22T02:58:37;21.20;91.60
5461;DHT22;2753;49.196;8.286;2022-07-22T03:01:03;21.10;91.60
5461;DHT22;2753;49.196;8.286;2022-07-22T03:03:29;21.20;91.60
5461;DHT22;2753;49.196;8.286;2022-07-22T03:05:54;21.20;91.60
5461;DHT22;2753;49.196;8.286;2022-07-22T03:08:20;21.10;91.70
5461;DHT22;2753;49.196;8.286;2022-07-22T03:10:46;21.20;92.00
5461;DHT22;2753;49.196;8.286;2022-07-22T03:13:11;21.20;91.60
5461;DHT22;2753;49.196;8.286;2022-07-22T03:15:37;21.10;91.90
5461;DHT22;2753;49.196;8.286;2022-07-22T03:18:03;21.00;92.10
5461;DHT22;2753;49.196;8.286;2022-07-22T03:20:28;21.00;92.10
5461;DHT22;2753;49.196;8.286;2022-07-22T03:22:54;20.90;92.40
5461;DHT22;2753;49.196;8.286;2022-07-22T03:25:20;21.00;92.10
5461;DHT22;2753;49.196;8.286;2022-07-22T03:27:45;20.90;91.80
5461;DHT22;2753;49.196;8.286;2022-07-22T03:30:12;21.00;92.00
5461;DHT22;2753;49.196;8.286;2022-07-22T03:32:38;21.00;91.80
5461;DHT22;2753;49.196;8.286;2022-07-22T03:35:04;21.00;91.90
5461;DHT22;2753;49.196;8.286;2022-07-22T03:37:30;21.00;91.70
5461;DHT22;2753;49.196;8.286;2022-07-22T03:39:56;21.00;91.80
5461;DHT22;2753;49.196;8.286;2022-07-22T03:42:22;21.00;91.90
5461;DHT22;2753;49.196;8.286;2022-07-22T03:44:47;20.90;92.00
5461;DHT22;2753;49.196;8.286;2022-07-22T03:47:18;20.90;92.00
5461;DHT22;2753;49.196;8.286;2022-07-22T03:49:44;20.90;92.00
5461;DHT22;2753;49.196;8.286;2022-07-22T03:52:10;20.70;92.00
5461;DHT22;2753;49.196;8.286;2022-07-22T03:54:35;20.80;92.00
5461;DHT22;2753;49.196;8.286;2022-07-22T03:57:01;20.80;92.00
5461;DHT22;2753;49.196;8.286;2022-07-22T03:59:27;20.80;92.10
5461;DHT22;2753;49.196;8.286;2022-07-22T04:01:53;20.80;92.10
5461;DHT22;2753;49.196;8.286;2022-07-22T04:04:18;20.80;92.40
5461;DHT22;2753;49.196;8.286;2022-07-22T04:06:44;20.80;91.90
5461;DHT22;2753;49.196;8.286;2022-07-22T04:09:10;20.80;92.00
5461;DHT22;2753;49.196;8.286;2022-07-22T04:11:36;20.80;91.80
5461;DHT22;2753;49.196;8.286;2022-07-22T04:14:02;20.80;91.80
5461;DHT22;2753;49.196;8.286;2022-07-22T04:16:27;20.70;91.90
5461;DHT22;2753;49.196;8.286;2022-07-22T04:18:53;20.80;92.00
5461;DHT22;2753;49.196;8.286;2022-07-22T04:21:19;20.70;92.00
5461;DHT22;2753;49.196;8.286;2022-07-22T04:23:44;20.70;92.10
5461;DHT22;2753;49.196;8.286;2022-07-22T04:26:10;20.70;92.00
5461;DHT22;2753;49.196;8.286;2022-07-22T04:28:36;20.70;92.00
5461;DHT22;2753;49.196;8.286;2022-07-22T04:31:02;20.70;92.00
5461;DHT22;2753;49.196;8.286;2022-07-22T04:33:29;20.70;92.00
5461;DHT22;2753;49.196;8.286;2022-07-22T04:35:54;20.70;92.10
5461;DHT22;2753;49.196;8.286;2022-07-22T04:38:20;20.70;92.10
5461;DHT22;2753;49.196;8.286;2022-07-22T04:40:46;20.60;92.00
5461;DHT22;2753;49.196;8.286;2022-07-22T04:43:12;20.60;92.10
5461;DHT22;2753;49.196;8.286;2022-07-22T04:45:37;20.60;92.20
5461;DHT22;2753;49.196;8.286;2022-07-22T04:48:03;20.60;92.10
5461;DHT22;2753;49.196;8.286;2022-07-22T04:50:29;20.60;92.20
5461;DHT22;2753;49.196;8.286;2022-07-22T04:52:55;20.60;92.30
5461;DHT22;2753;49.196;8.286;2022-07-22T04:55:20;20.60;92.20
5461;DHT22;2753;49.196;8.286;2022-07-22T04:57:46;20.60;92.20
5461;DHT22;2753;49.196;8.286;2022-07-22T05:00:12;20.60;92.20
5461;DHT22;2753;49.196;8.286;2022-07-22T05:02:38;20.60;92.40
5461;DHT22;2753;49.196;8.286;2022-07-22T05:05:04;20.50;92.40
5461;DHT22;2753;49.196;8.286;2022-07-22T05:07:30;20.60;92.40
5461;DHT22;2753;49.196;8.286;2022-07-22T05:09:55;20.60;92.30
5461;DHT22;2753;49.196;8.286;2022-07-22T05:12:21;20.60;92.30
5461;DHT22;2753;49.196;8.286;2022-07-22T05:14:47;20.60;92.60
5461;DHT22;2753;49.196;8.286;2022-07-22T05:17:12;20.60;92.50
5461;DHT22;2753;49.196;8.286;2022-07-22T05:19:39;20.60;92.50
5461;DHT22;2753;49.196;8.286;2022-07-22T05:22:06;20.60;92.60
5461;DHT22;2753;49.196;8.286;2022-07-22T05:24:32;20.70;92.60
5461;DHT22;2753;49.196;8.286;2022-07-22T05:26:58;20.60;92.70
5461;DHT22;2753;49.196;8.286;2022-07-22T05:29:24;20.60;92.70
5461;DHT22;2753;49.196;8.286;2022-07-22T05:31:49;20.60;93.10
5461;DHT22;2753;49.196;8.286;2022-07-22T05:34:15;20.70;92.70
5461;DHT22;2753;49.196;8.286;2022-07-22T05:36:41;20.70;92.90
5461;DHT22;2753;49.196;8.286;2022-07-22T05:39:07;20.70;92.70
5461;DHT22;2753;49.196;8.286;2022-07-22T05:41:33;20.70;92.80
5461;DHT22;2753;49.196;8.286;2022-07-22T05:43:58;20.70;92.60
5461;DHT22;2753;49.196;8.286;2022-07-22T05:46:24;20.70;92.70
5461;DHT22;2753;49.196;8.286;2022-07-22T05:48:50;20.80;92.70
5461;DHT22;2753;49.196;8.286;2022-07-22T05:51:16;20.80;92.70
5461;DHT22;2753;49.196;8.286;2022-07-22T05:53:42;20.80;92.70
5461;DHT22;2753;49.196;8.286;2022-07-22T05:56:09;20.80;92.80
5461;DHT22;2753;49.196;8.286;2022-07-22T05:58:40;20.80;92.90
5461;DHT22;2753;49.196;8.286;2022-07-22T06:01:07;20.90;92.80
5461;DHT22;2753;49.196;8.286;2022-07-22T06:03:33;21.00;92.50
5461;DHT22;2753;49.196;8.286;2022-07-22T06:05:59;21.00;92.60
5461;DHT22;2753;49.196;8.286;2022-07-22T06:08:27;20.90;92.70
5461;DHT22;2753;49.196;8.286;2022-07-22T06:10:53;21.00;92.80
5461;DHT22;2753;49.196;8.286;2022-07-22T06:13:19;21.00;92.70
5461;DHT22;2753;49.196;8.286;2022-07-22T06:15:44;21.00;92.60
5461;DHT22;2753;49.196;8.286;2022-07-22T06:18:10;21.00;92.70
5461;DHT22;2753;49.196;8.286;2022-07-22T06:20:36;21.10;92.70
5461;DHT22;2753;49.196;8.286;2022-07-22T06:23:02;21.10;92.50
5461;DHT22;2753;49.196;8.286;2022-07-22T06:25:28;21.20;92.40
5461;DHT22;2753;49.196;8.286;2022-07-22T06:27:53;21.20;92.50
5461;DHT22;2753;49.196;8.286;2022-07-22T06:30:19;21.20;92.30
5461;DHT22;2753;49.196;8.286;2022-07-22T06:32:46;21.30;92.20
5461;DHT22;2753;49.196;8.286;2022-07-22T06:35:11;21.30;92.20
5461;DHT22;2753;49.196;8.286;2022-07-22T06:37:37;21.30;92.00
5461;DHT22;2753;49.196;8.286;2022-07-22T06:40:03;21.30;92.00
5461;DHT22;2753;49.196;8.286;2022-07-22T06:42:32;21.40;92.00
5461;DHT22;2753;49.196;8.286;2022-07-22T06:44:58;21.50;92.00
5461;DHT22;2753;49.196;8.286;2022-07-22T06:47:23;21.50;91.90
5461;DHT22;2753;49.196;8.286;2022-07-22T06:49:49;21.60;91.80
5461;DHT22;2753;49.196;8.286;2022-07-22T06:52:14;21.60;91.90
5461;DHT22;2753;49.196;8.286;2022-07-22T06:54:40;21.80;91.60
5461;DHT22;2753;49.196;8.286;2022-07-22T06:57:06;22.00;91.20
5461;DHT22;2753;49.196;8.286;2022-07-22T06:59:31;22.30;91.00
5461;DHT22;2753;49.196;8.286;2022-07-22T07:01:57;22.50;90.90
5461;DHT22;2753;49.196;8.286;2022-07-22T07:04:23;22.50;90.70
5461;DHT22;2753;49.196;8.286;2022-07-22T07:06:48;22.70;90.50
5461;DHT22;2753;49.196;8.286;2022-07-22T07:09:14;22.80;90.40
5461;DHT22;2753;49.196;8.286;2022-07-22T07:11:40;22.90;90.10
5461;DHT22;2753;49.196;8.286;2022-07-22T07:14:05;23.10;90.10
5461;DHT22;2753;49.196;8.286;2022-07-22T07:16:31;23.30;89.20
5461;DHT22;2753;49.196;8.286;2022-07-22T07:18:57;23.30;88.40
5461;DHT22;2753;49.196;8.286;2022-07-22T07:21:22;23.50;88.30
5461;DHT22;2753;49.196;8.286;2022-07-22T07:23:48;23.70;87.90
5461;DHT22;2753;49.196;8.286;2022-07-22T07:26:14;23.80;86.60
5461;DHT22;2753;49.196;8.286;2022-07-22T07:28:39;24.00;87.30
5461;DHT22;2753;49.196;8.286;2022-07-22T07:31:05;24.10;86.20
5461;DHT22;2753;49.196;8.286;2022-07-22T07:33:31;24.30;85.80
5461;DHT22;2753;49.196;8.286;2022-07-22T07:35:57;24.30;84.80
5461;DHT22;2753;49.196;8.286;2022-07-22T07:38:23;24.40;85.20
5461;DHT22;2753;49.196;8.286;2022-07-22T07:40:49;24.50;84.90
5461;DHT22;2753;49.196;8.286;2022-07-22T07:43:14;24.60;84.80
5461;DHT22;2753;49.196;8.286;2022-07-22T07:45:40;24.70;84.40
5461;DHT22;2753;49.196;8.286;2022-07-22T07:48:07;24.90;84.40
5461;DHT22;2753;49.196;8.286;2022-07-22T07:50:33;25.00;83.90
5461;DHT22;2753;49.196;8.286;2022-07-22T07:52:58;25.00;83.20
5461;DHT22;2753;49.196;8.286;2022-07-22T07:55:24;25.20;82.70
5461;DHT22;2753;49.196;8.286;2022-07-22T07:57:50;25.40;82.20
5461;DHT22;2753;49.196;8.286;2022-07-22T08:00:19;25.60;81.30
5461;DHT22;2753;49.196;8.286;2022-07-22T08:02:46;25.80;80.40
5461;DHT22;2753;49.196;8.286;2022-07-22T08:05:12;25.70;80.60
5461;DHT22;2753;49.196;8.286;2022-07-22T08:07:38;25.70;80.90
5461;DHT22;2753;49.196;8.286;2022-07-22T08:10:08;26.00;80.40
5461;DHT22;2753;49.196;8.286;2022-07-22T08:12:34;26.20;80.20
5461;DHT22;2753;49.196;8.286;2022-07-22T08:14:59;26.40;78.50
5461;DHT22;2753;49.196;8.286;2022-07-22T08:17:25;26.50;78.70
5461;DHT22;2753;49.196;8.286;2022-07-22T08:19:51;26.80;77.80
5461;DHT22;2753;49.196;8.286;2022-07-22T08:22:16;26.90;77.30
5461;DHT22;2753;49.196;8.286;2022-07-22T08:24:42;27.00;76.80
5461;DHT22;2753;49.196;8.286;2022-07-22T08:27:08;26.90;77.10
5461;DHT22;2753;49.196;8.286;2022-07-22T08:29:33;26.70;78.00
5461;DHT22;2753;49.196;8.286;2022-07-22T08:31:59;26.60;77.90
5461;DHT22;2753;49.196;8.286;2022-07-22T08:34:25;26.90;77.50
5461;DHT22;2753;49.196;8.286;2022-07-22T08:36:50;27.10;77.50
5461;DHT22;2753;49.196;8.286;2022-07-22T08:39:16;27.40;76.70
5461;DHT22;2753;49.196;8.286;2022-07-22T08:41:42;27.30;76.50
5461;DHT22;2753;49.196;8.286;2022-07-22T08:44:09;27.20;76.60
5461;DHT22;2753;49.196;8.286;2022-07-22T08:46:35;27.30;77.30
5461;DHT22;2753;49.196;8.286;2022-07-22T08:49:01;27.70;77.40
5461;DHT22;2753;49.196;8.286;2022-07-22T08:51:28;27.80;75.80
5461;DHT22;2753;49.196;8.286;2022-07-22T08:53:56;28.30;74.40
5461;DHT22;2753;49.196;8.286;2022-07-22T08:56:23;28.40;73.30
5461;DHT22;2753;49.196;8.286;2022-07-22T08:58:50;28.50;72.60
5461;DHT22;2753;49.196;8.286;2022-07-22T09:01:16;28.40;73.40
5461;DHT22;2753;49.196;8.286;2022-07-22T09:06:12;28.90;72.70
5461;DHT22;2753;49.196;8.286;2022-07-22T09:08:54;29.20;71.50
5461;DHT22;2753;49.196;8.286;2022-07-22T09:11:23;29.10;72.40
5461;DHT22;2753;49.196;8.286;2022-07-22T09:13:49;28.60;72.50
5461;DHT22;2753;49.196;8.286;2022-07-22T09:16:15;28.90;72.90
5461;DHT22;2753;49.196;8.286;2022-07-22T09:18:52;29.20;71.10
5461;DHT22;2753;49.196;8.286;2022-07-22T09:21:19;29.10;72.20
5461;DHT22;2753;49.196;8.286;2022-07-22T09:23:45;29.20;71.30
5461;DHT22;2753;49.196;8.286;2022-07-22T09:26:33;29.10;72.20
5461;DHT22;2753;49.196;8.286;2022-07-22T09:28:59;28.80;72.40
5461;DHT22;2753;49.196;8.286;2022-07-22T09:31:27;28.60;73.10
5461;DHT22;2753;49.196;8.286;2022-07-22T09:33:52;28.90;71.50
5461;DHT22;2753;49.196;8.286;2022-07-22T09:36:19;28.80;72.10
5461;DHT22;2753;49.196;8.286;2022-07-22T09:38:45;28.30;73.00
5461;DHT22;2753;49.196;8.286;2022-07-22T09:41:11;28.30;74.00
5461;DHT22;2753;49.196;8.286;2022-07-22T09:43:36;28.50;73.00
5461;DHT22;2753;49.196;8.286;2022-07-22T09:46:02;28.70;73.40
5461;DHT22;2753;49.196;8.286;2022-07-22T09:48:30;28.80;71.90
5461;DHT22;2753;49.196;8.286;2022-07-22T09:50:56;28.80;72.00
5461;DHT22;2753;49.196;8.286;2022-07-22T09:53:25;28.90;71.80
5461;DHT22;2753;49.196;8.286;2022-07-22T09:55:53;28.90;71.60
5461;DHT22;2753;49.196;8.286;2022-07-22T09:58:18;28.80;71.60
5461;DHT22;2753;49.196;8.286;2022-07-22T10:00:45;28.80;71.80
5461;DHT22;2753;49.196;8.286;2022-07-22T10:03:17;28.70;71.80
5461;DHT22;2753;49.196;8.286;2022-07-22T10:05:44;28.70;72.50
5461;DHT22;2753;49.196;8.286;2022-07-22T10:08:10;28.60;73.10
5461;DHT22;2753;49.196;8.286;2022-07-22T10:10:37;28.50;73.00
5461;DHT22;2753;49.196;8.286;2022-07-22T10:13:05;28.60;72.50
5461;DHT22;2753;49.196;8.286;2022-07-22T10:15:34;28.60;71.90
5461;DHT22;2753;49.196;8.286;2022-07-22T10:18:02;28.70;72.00
5461;DHT22;2753;49.196;8.286;2022-07-22T10:20:30;28.60;72.00
5461;DHT22;2753;49.196;8.286;2022-07-22T10:26:10;28.60;72.30
5461;DHT22;2753;49.196;8.286;2022-07-22T10:28:24;28.60;72.50
5461;DHT22;2753;49.196;8.286;2022-07-22T10:30:50;28.60;72.70
5461;DHT22;2753;49.196;8.286;2022-07-22T10:33:20;28.60;72.80
5461;DHT22;2753;49.196;8.286;2022-07-22T10:36:02;28.60;73.00
5461;DHT22;2753;49.196;8.286;2022-07-22T10:38:30;28.50;72.10
5461;DHT22;2753;49.196;8.286;2022-07-22T10:40:58;28.60;72.20
5461;DHT22;2753;49.196;8.286;2022-07-22T10:46:08;28.30;71.70
5461;DHT22;2753;49.196;8.286;2022-07-22T10:51:23;28.20;73.50
5461;DHT22;2753;49.196;8.286;2022-07-22T10:54:01;28.30;72.50
5461;DHT22;2753;49.196;8.286;2022-07-22T10:56:35;28.40;72.60
5461;DHT22;2753;49.196;8.286;2022-07-22T10:59:14;28.40;73.00
5461;DHT22;2753;49.196;8.286;2022-07-22T11:01:43;28.50;71.80
5461;DHT22;2753;49.196;8.286;2022-07-22T11:06:40;28.50;71.80
5461;DHT22;2753;49.196;8.286;2022-07-22T11:09:08;28.40;71.60
5461;DHT22;2753;49.196;8.286;2022-07-22T11:14:32;28.30;72.70
5461;DHT22;2753;49.196;8.286;2022-07-22T11:19:26;28.40;72.00
5461;DHT22;2753;49.196;8.286;2022-07-22T11:21:54;28.40;72.50
5461;DHT22;2753;49.196;8.286;2022-07-22T11:24:21;28.30;71.10
5461;DHT22;2753;49.196;8.286;2022-07-22T11:26:49;28.40;72.00
5461;DHT22;2753;49.196;8.286;2022-07-22T11:29:28;28.40;71.30
5461;DHT22;2753;49.196;8.286;2022-07-22T11:31:58;28.40;71.50
5461;DHT22;2753;49.196;8.286;2022-07-22T11:34:24;28.40;71.50
5461;DHT22;2753;49.196;8.286;2022-07-22T11:36:51;28.50;70.80
5461;DHT22;2753;49.196;8.286;2022-07-22T11:39:20;28.40;70.20
5461;DHT22;2753;49.196;8.286;2022-07-22T11:41:46;28.50;71.50
5461;DHT22;2753;49.196;8.286;2022-07-22T11:44:11;28.50;71.20
5461;DHT22;2753;49.196;8.286;2022-07-22T11:46:40;28.60;71.50
5461;DHT22;2753;49.196;8.286;2022-07-22T11:49:06;28.60;70.70
5461;DHT22;2753;49.196;8.286;2022-07-22T11:51:33;28.60;70.90
5461;DHT22;2753;49.196;8.286;2022-07-22T11:54:00;28.60;70.90
5461;DHT22;2753;49.196;8.286;2022-07-22T11:56:26;28.60;70.20
5461;DHT22;2753;49.196;8.286;2022-07-22T11:58:52;28.60;70.20
5461;DHT22;2753;49.196;8.286;2022-07-22T12:01:27;28.60;70.40
5461;DHT22;2753;49.196;8.286;2022-07-22T12:03:58;28.60;70.50
5461;DHT22;2753;49.196;8.286;2022-07-22T12:06:26;28.60;70.90
5461;DHT22;2753;49.196;8.286;2022-07-22T12:09:03;28.60;70.50
5461;DHT22;2753;49.196;8.286;2022-07-22T12:11:30;28.70;70.90
5461;DHT22;2753;49.196;8.286;2022-07-22T12:13:56;28.70;70.10
5461;DHT22;2753;49.196;8.286;2022-07-22T12:16:29;28.70;70.10
5461;DHT22;2753;49.196;8.286;2022-07-22T12:19:03;28.70;69.10
5461;DHT22;2753;49.196;8.286;2022-07-22T12:21:33;28.70;69.00
5461;DHT22;2753;49.196;8.286;2022-07-22T12:24:07;28.70;70.00
5461;DHT22;2753;49.196;8.286;2022-07-22T12:27:00;28.80;69.90
5461;DHT22;2753;49.196;8.286;2022-07-22T12:29:28;28.70;69.30
5461;DHT22;2753;49.196;8.286;2022-07-22T12:32:07;28.70;69.50
5461;DHT22;2753;49.196;8.286;2022-07-22T12:34:40;28.80;69.30
5461;DHT22;2753;49.196;8.286;2022-07-22T12:40:09;28.90;69.70
5461;DHT22;2753;49.196;8.286;2022-07-22T12:42:43;28.90;69.40
5461;DHT22;2753;49.196;8.286;2022-07-22T12:45:19;29.00;69.70
5461;DHT22;2753;49.196;8.286;2022-07-22T12:47:55;29.00;68.80
5461;DHT22;2753;49.196;8.286;2022-07-22T12:52:56;29.00;68.90
5461;DHT22;2753;49.196;8.286;2022-07-22T12:55:23;29.00;69.70
5461;DHT22;2753;49.196;8.286;2022-07-22T12:57:49;29.00;68.80
5461;DHT22;2753;49.196;8.286;2022-07-22T13:00:20;29.00;69.50
5461;DHT22;2753;49.196;8.286;2022-07-22T13:02:47;29.10;68.80
5461;DHT22;2753;49.196;8.286;2022-07-22T13:05:13;29.10;68.90
5461;DHT22;2753;49.196;8.286;2022-07-22T13:07:39;29.10;69.00
5461;DHT22;2753;49.196;8.286;2022-07-22T13:10:05;29.10;68.50
5461;DHT22;2753;49.196;8.286;2022-07-22T13:12:31;29.20;68.20
5461;DHT22;2753;49.196;8.286;2022-07-22T13:14:57;29.20;68.10
5461;DHT22;2753;49.196;8.286;2022-07-22T13:17:23;29.20;68.10
5461;DHT22;2753;49.196;8.286;2022-07-22T13:19:49;29.40;68.20
5461;DHT22;2753;49.196;8.286;2022-07-22T13:22:14;29.40;67.60
5461;DHT22;2753;49.196;8.286;2022-07-22T13:24:40;29.40;67.30
5461;DHT22;2753;49.196;8.286;2022-07-22T13:27:05;29.40;67.60
5461;DHT22;2753;49.196;8.286;2022-07-22T13:29:31;29.40;67.70
5461;DHT22;2753;49.196;8.286;2022-07-22T13:31:57;29.40;67.60
5461;DHT22;2753;49.196;8.286;2022-07-22T13:34:22;29.40;66.90
5461;DHT22;2753;49.196;8.286;2022-07-22T13:36:48;29.30;66.50
5461;DHT22;2753;49.196;8.286;2022-07-22T13:39:14;29.40;66.90
5461;DHT22;2753;49.196;8.286;2022-07-22T13:41:39;29.40;67.10
5461;DHT22;2753;49.196;8.286;2022-07-22T13:44:05;29.40;66.90
5461;DHT22;2753;49.196;8.286;2022-07-22T13:46:34;29.40;66.80
5461;DHT22;2753;49.196;8.286;2022-07-22T13:49:00;29.40;65.30
5461;DHT22;2753;49.196;8.286;2022-07-22T13:51:26;29.40;65.70
5461;DHT22;2753;49.196;8.286;2022-07-22T13:53:51;29.40;66.40
5461;DHT22;2753;49.196;8.286;2022-07-22T13:56:17;29.40;66.90
5461;DHT22;2753;49.196;8.286;2022-07-22T13:58:43;29.60;66.80
5461;DHT22;2753;49.196;8.286;2022-07-22T14:01:09;29.60;66.80
5461;DHT22;2753;49.196;8.286;2022-07-22T14:03:36;29.70;67.10
5461;DHT22;2753;49.196;8.286;2022-07-22T14:06:03;29.70;67.00
5461;DHT22;2753;49.196;8.286;2022-07-22T14:08:28;29.80;66.90
5461;DHT22;2753;49.196;8.286;2022-07-22T14:10:54;29.80;67.60
5461;DHT22;2753;49.196;8.286;2022-07-22T14:13:20;29.80;66.90
5461;DHT22;2753;49.196;8.286;2022-07-22T14:15:45;29.80;66.50
5461;DHT22;2753;49.196;8.286;2022-07-22T14:18:11;29.80;66.00
5461;DHT22;2753;49.196;8.286;2022-07-22T14:20:37;29.80;67.00
5461;DHT22;2753;49.196;8.286;2022-07-22T14:23:07;29.90;66.60
5461;DHT22;2753;49.196;8.286;2022-07-22T14:25:39;29.90;66.10
5461;DHT22;2753;49.196;8.286;2022-07-22T14:28:06;29.90;66.20
5461;DHT22;2753;49.196;8.286;2022-07-22T14:30:33;29.90;66.50
5461;DHT22;2753;49.196;8.286;2022-07-22T14:32:59;30.00;66.30
5461;DHT22;2753;49.196;8.286;2022-07-22T14:35:25;30.00;65.40
5461;DHT22;2753;49.196;8.286;2022-07-22T14:37:50;30.00;65.70
5461;DHT22;2753;49.196;8.286;2022-07-22T14:40:17;30.00;65.70
5461;DHT22;2753;49.196;8.286;2022-07-22T14:42:42;30.00;65.30
5461;DHT22;2753;49.196;8.286;2022-07-22T14:45:08;29.90;65.80
5461;DHT22;2753;49.196;8.286;2022-07-22T14:47:37;30.00;65.30
5461;DHT22;2753;49.196;8.286;2022-07-22T14:50:05;29.90;66.00
5461;DHT22;2753;49.196;8.286;2022-07-22T14:52:31;30.00;65.70
5461;DHT22;2753;49.196;8.286;2022-07-22T14:54:57;30.10;65.50
5461;DHT22;2753;49.196;8.286;2022-07-22T14:57:23;30.10;65.20
5461;DHT22;2753;49.196;8.286;2022-07-22T14:59:48;30.10;65.10
5461;DHT22;2753;49.196;8.286;2022-07-22T15:02:14;30.10;64.90
5461;DHT22;2753;49.196;8.286;2022-07-22T15:04:40;30.00;65.00
5461;DHT22;2753;49.196;8.286;2022-07-22T15:07:06;30.10;64.50
5461;DHT22;2753;49.196;8.286;2022-07-22T15:09:32;30.10;64.70
5461;DHT22;2753;49.196;8.286;2022-07-22T15:11:57;30.10;64.70
5461;DHT22;2753;49.196;8.286;2022-07-22T15:14:23;30.10;64.60
5461;DHT22;2753;49.196;8.286;2022-07-22T15:16:49;30.10;64.80
5461;DHT22;2753;49.196;8.286;2022-07-22T15:19:14;30.10;64.60
5461;DHT22;2753;49.196;8.286;2022-07-22T15:21:40;30.10;64.70
5461;DHT22;2753;49.196;8.286;2022-07-22T15:24:06;30.10;64.40
5461;DHT22;2753;49.196;8.286;2022-07-22T15:26:34;30.10;64.60
5461;DHT22;2753;49.196;8.286;2022-07-22T15:28:59;30.10;64.70
5461;DHT22;2753;49.196;8.286;2022-07-22T15:31:26;30.10;65.10
5461;DHT22;2753;49.196;8.286;2022-07-22T15:33:53;30.10;64.90
5461;DHT22;2753;49.196;8.286;2022-07-22T15:36:19;30.20;64.80
5461;DHT22;2753;49.196;8.286;2022-07-22T15:38:45;30.20;64.10
5461;DHT22;2753;49.196;8.286;2022-07-22T15:41:11;30.10;63.70
5461;DHT22;2753;49.196;8.286;2022-07-22T15:43:38;30.10;63.60
5461;DHT22;2753;49.196;8.286;2022-07-22T15:46:05;30.10;64.70
5461;DHT22;2753;49.196;8.286;2022-07-22T15:48:31;30.10;63.30
5461;DHT22;2753;49.196;8.286;2022-07-22T15:50:56;30.10;62.50
5461;DHT22;2753;49.196;8.286;2022-07-22T15:53:22;30.10;63.40
5461;DHT22;2753;49.196;8.286;2022-07-22T15:55:49;30.10;62.70
5461;DHT22;2753;49.196;8.286;2022-07-22T15:58:15;30.10;62.30
5461;DHT22;2753;49.196;8.286;2022-07-22T16:00:59;30.10;62.40
5461;DHT22;2753;49.196;8.286;2022-07-22T16:03:25;30.10;62.80
5461;DHT22;2753;49.196;8.286;2022-07-22T16:05:51;30.10;62.50
5461;DHT22;2753;49.196;8.286;2022-07-22T16:08:17;30.10;61.70
5461;DHT22;2753;49.196;8.286;2022-07-22T16:10:43;30.10;62.70
5461;DHT22;2753;49.196;8.286;2022-07-22T16:13:09;30.20;62.70
5461;DHT22;2753;49.196;8.286;2022-07-22T16:15:35;30.20;62.30
5461;DHT22;2753;49.196;8.286;2022-07-22T16:18:00;30.20;62.00
5461;DHT22;2753;49.196;8.286;2022-07-22T16:20:26;30.30;61.40
5461;DHT22;2753;49.196;8.286;2022-07-22T16:22:52;30.20;62.00